sensor_id;sensor_type;location;lat;lon;timestamp;P1;durP1;ratioP1;P2;durP2;ratioP2
5135;SDS011;2586;48.710;9.202;2022-07-03T00:02:02;6.83;;;2.40;;
5135;SDS011;2586;48.710;9.202;2022-07-03T00:04:28;5.03;;;2.50;;
5135;SDS011;2586;48.710;9.202;2022-07-03T00:06:54;3.83;;;2.87;;
5135;SDS011;2586;48.710;9.202;2022-07-03T00:09:20;4.03;;;2.90;;
5135;SDS011;2586;48.710;9.202;2022-07-03T00:11:45;3.83;;;2.63;;
5135;SDS011;2586;48.710;9.202;2022-07-03T00:14:11;3.53;;;2.60;;
5135;SDS011;2586;48.710;9.202;2022-07-03T00:16:37;5.90;;;2.70;;
5135;SDS011;2586;48.710;9.202;2022-07-03T00:19:03;3.03;;;2.50;;
5135;SDS011;2586;48.710;9.202;2022-07-03T00:21:34;6.90;;;2.40;;
5135;SDS011;2586;48.710;9.202;2022-07-03T00:24:10;3.67;;;2.90;;
5135;SDS011;2586;48.710;9.202;2022-07-03T00:26:45;2.77;;;2.57;;
5135;SDS011;2586;48.710;9.202;2022-07-03T00:29:17;7.83;;;2.90;;
5135;SDS011;2586;48.710;9.202;2022-07-03T00:31:47;2.60;;;2.40;;
5135;SDS011;2586;48.710;9.202;2022-07-03T00:34:14;6.10;;;3.07;;
5135;SDS011;2586;48.710;9.202;2022-07-03T00:36:41;7.10;;;2.93;;
5135;SDS011;2586;48.710;9.202;2022-07-03T00:39:08;3.50;;;3.20;;
5135;SDS011;2586;48.710;9.202;2022-07-03T00:41:34;3.83;;;3.30;;
5135;SDS011;2586;48.710;9.202;2022-07-03T00:44:01;7.80;;;2.40;;
5135;SDS011;2586;48.710;9.202;2022-07-03T00:46:27;4.40;;;2.77;;
5135;SDS011;2586;48.710;9.202;2022-07-03T00:48:54;2.30;;;2.10;;
5135;SDS011;2586;48.710;9.202;2022-07-03T00:51:25;4.90;;;2.70;;
5135;SDS011;2586;48.710;9.202;2022-07-03T00:53:52;4.40;;;2.90;;
5135;SDS011;2586;48.710;9.202;2022-07-03T00:56:24;4.30;;;2.07;;
5135;SDS011;2586;48.710;9.202;2022-07-03T00:58:55;3.80;;;2.27;;
5135;SDS011;2586;48.710;9.202;2022-07-03T01:01:32;5.80;;;2.03;;
5135;SDS011;2586;48.710;9.202;2022-07-03T01:06:26;5.27;;;2.20;;
5135;SDS011;2586;48.710;9.202;2022-07-03T01:09:01;10.60;;;1.60;;
5135;SDS011;2586;48.710;9.202;2022-07-03T01:11:33;5.70;;;2.33;;
5135;SDS011;2586;48.710;9.202;2022-07-03T01:16:48;11.37;;;2.43;;
5135;SDS011;2586;48.710;9.202;2022-07-03T01:19:44;4.57;;;2.33;;
5135;SDS011;2586;48.710;9.202;2022-07-03T01:27:32;5.43;;;2.10;;
5135;SDS011;2586;48.710;9.202;2022-07-03T01:30:04;2.20;;;2.03;;
5135;SDS011;2586;48.710;9.202;2022-07-03T01:32:33;2.50;;;1.70;;
5135;SDS011;2586;48.710;9.202;2022-07-03T01:35:13;6.17;;;2.23;;
5135;SDS011;2586;48.710;9.202;2022-07-03T01:37:45;1.93;;;1.80;;
5135;SDS011;2586;48.710;9.202;2022-07-03T01:40:12;6.87;;;2.00;;
5135;SDS011;2586;48.710;9.202;2022-07-03T01:42:41;3.83;;;2.13;;
5135;SDS011;2586;48.710;9.202;2022-07-03T01:45:09;7.20;;;2.30;;
5135;SDS011;2586;48.710;9.202;2022-07-03T01:47:37;8.97;;;2.50;;
5135;SDS011;2586;48.710;9.202;2022-07-03T01:50:07;7.60;;;2.40;;
5135;SDS011;2586;48.710;9.202;2022-07-03T01:52:35;4.50;;;2.50;;
5135;SDS011;2586;48.710;9.202;2022-07-03T01:55:05;5.23;;;2.10;;
5135;SDS011;2586;48.710;9.202;2022-07-03T01:57:35;5.37;;;2.10;;
5135;SDS011;2586;48.710;9.202;2022-07-03T02:00:07;2.23;;;2.03;;
5135;SDS011;2586;48.710;9.202;2022-07-03T02:02:33;9.50;;;2.23;;
5135;SDS011;2586;48.710;9.202;2022-07-03T02:05:08;4.13;;;1.97;;
5135;SDS011;2586;48.710;9.202;2022-07-03T02:07:40;4.60;;;2.30;;
5135;SDS011;2586;48.710;9.202;2022-07-03T02:10:13;1.60;;;1.50;;
5135;SDS011;2586;48.710;9.202;2022-07-03T02:15:09;4.37;;;2.20;;
5135;SDS011;2586;48.710;9.202;2022-07-03T02:17:42;2.20;;;2.00;;
5135;SDS011;2586;48.710;9.202;2022-07-03T02:20:10;6.63;;;2.07;;
5135;SDS011;2586;48.710;9.202;2022-07-03T02:22:40;2.87;;;1.87;;
5135;SDS011;2586;48.710;9.202;2022-07-03T02:25:09;1.63;;;1.53;;
5135;SDS011;2586;48.710;9.202;2022-07-03T02:27:43;1.63;;;1.40;;
5135;SDS011;2586;48.710;9.202;2022-07-03T02:30:12;3.20;;;1.87;;
5135;SDS011;2586;48.710;9.202;2022-07-03T02:32:42;2.50;;;1.23;;
5135;SDS011;2586;48.710;9.202;2022-07-03T02:35:16;5.43;;;2.07;;
5135;SDS011;2586;48.710;9.202;2022-07-03T02:37:53;1.40;;;1.30;;
5135;SDS011;2586;48.710;9.202;2022-07-03T02:40:40;5.17;;;2.00;;
5135;SDS011;2586;48.710;9.202;2022-07-03T02:43:18;5.70;;;1.57;;
5135;SDS011;2586;48.710;9.202;2022-07-03T02:51:38;1.87;;;1.77;;
5135;SDS011;2586;48.710;9.202;2022-07-03T02:54:14;2.27;;;2.10;;
5135;SDS011;2586;48.710;9.202;2022-07-03T03:02:17;3.70;;;2.70;;
5135;SDS011;2586;48.710;9.202;2022-07-03T03:04:58;3.73;;;2.33;;
5135;SDS011;2586;48.710;9.202;2022-07-03T03:07:34;3.17;;;1.90;;
5135;SDS011;2586;48.710;9.202;2022-07-03T03:10:08;4.60;;;2.23;;
5135;SDS011;2586;48.710;9.202;2022-07-03T03:12:37;4.30;;;2.27;;
5135;SDS011;2586;48.710;9.202;2022-07-03T03:15:06;2.00;;;1.90;;
5135;SDS011;2586;48.710;9.202;2022-07-03T03:17:39;7.97;;;2.20;;
5135;SDS011;2586;48.710;9.202;2022-07-03T03:20:08;1.70;;;1.57;;
5135;SDS011;2586;48.710;9.202;2022-07-03T03:25:29;1.63;;;1.53;;
5135;SDS011;2586;48.710;9.202;2022-07-03T03:27:55;4.60;;;1.93;;
5135;SDS011;2586;48.710;9.202;2022-07-03T03:30:21;4.10;;;2.50;;
5135;SDS011;2586;48.710;9.202;2022-07-03T03:32:46;1.77;;;1.50;;
5135;SDS011;2586;48.710;9.202;2022-07-03T03:35:12;1.57;;;1.47;;
5135;SDS011;2586;48.710;9.202;2022-07-03T03:37:37;1.70;;;1.60;;
5135;SDS011;2586;48.710;9.202;2022-07-03T03:40:04;5.73;;;2.03;;
5135;SDS011;2586;48.710;9.202;2022-07-03T03:42:30;1.17;;;1.17;;
5135;SDS011;2586;48.710;9.202;2022-07-03T03:44:55;1.30;;;1.20;;
5135;SDS011;2586;48.710;9.202;2022-07-03T03:47:21;2.60;;;1.70;;
5135;SDS011;2586;48.710;9.202;2022-07-03T03:49:47;4.30;;;1.50;;
5135;SDS011;2586;48.710;9.202;2022-07-03T03:52:12;3.37;;;1.53;;
5135;SDS011;2586;48.710;9.202;2022-07-03T03:54:38;1.30;;;1.20;;
5135;SDS011;2586;48.710;9.202;2022-07-03T03:57:16;4.67;;;1.60;;
5135;SDS011;2586;48.710;9.202;2022-07-03T03:59:42;1.63;;;1.53;;
5135;SDS011;2586;48.710;9.202;2022-07-03T04:02:08;4.00;;;1.60;;
5135;SDS011;2586;48.710;9.202;2022-07-03T04:04:33;1.80;;;1.57;;
5135;SDS011;2586;48.710;9.202;2022-07-03T04:06:59;1.30;;;1.30;;
5135;SDS011;2586;48.710;9.202;2022-07-03T04:09:24;1.40;;;1.20;;
5135;SDS011;2586;48.710;9.202;2022-07-03T04:11:50;1.83;;;1.70;;
5135;SDS011;2586;48.710;9.202;2022-07-03T04:14:16;1.93;;;1.70;;
5135;SDS011;2586;48.710;9.202;2022-07-03T04:16:43;1.80;;;1.70;;
5135;SDS011;2586;48.710;9.202;2022-07-03T04:19:08;1.97;;;1.47;;
5135;SDS011;2586;48.710;9.202;2022-07-03T04:21:34;3.70;;;1.90;;
5135;SDS011;2586;48.710;9.202;2022-07-03T04:23:59;3.30;;;1.60;;
5135;SDS011;2586;48.710;9.202;2022-07-03T04:26:25;3.23;;;1.40;;
5135;SDS011;2586;48.710;9.202;2022-07-03T04:28:51;10.87;;;1.30;;
5135;SDS011;2586;48.710;9.202;2022-07-03T04:31:16;2.13;;;1.60;;
5135;SDS011;2586;48.710;9.202;2022-07-03T04:33:42;6.50;;;1.47;;
5135;SDS011;2586;48.710;9.202;2022-07-03T04:36:07;2.40;;;1.63;;
5135;SDS011;2586;48.710;9.202;2022-07-03T04:38:33;3.23;;;1.30;;
5135;SDS011;2586;48.710;9.202;2022-07-03T04:40:59;3.13;;;1.90;;
5135;SDS011;2586;48.710;9.202;2022-07-03T04:43:25;1.57;;;1.47;;
5135;SDS011;2586;48.710;9.202;2022-07-03T04:45:50;2.13;;;2.00;;
5135;SDS011;2586;48.710;9.202;2022-07-03T04:48:16;3.77;;;1.47;;
5135;SDS011;2586;48.710;9.202;2022-07-03T04:50:42;1.47;;;1.37;;
5135;SDS011;2586;48.710;9.202;2022-07-03T04:53:07;3.80;;;1.50;;
5135;SDS011;2586;48.710;9.202;2022-07-03T04:55:33;5.80;;;1.57;;
5135;SDS011;2586;48.710;9.202;2022-07-03T04:57:58;1.90;;;1.70;;
5135;SDS011;2586;48.710;9.202;2022-07-03T05:00:24;2.10;;;1.50;;
5135;SDS011;2586;48.710;9.202;2022-07-03T05:02:49;1.57;;;1.47;;
5135;SDS011;2586;48.710;9.202;2022-07-03T05:05:15;2.30;;;1.00;;
5135;SDS011;2586;48.710;9.202;2022-07-03T05:07:41;2.10;;;1.90;;
5135;SDS011;2586;48.710;9.202;2022-07-03T05:10:07;1.90;;;1.80;;
5135;SDS011;2586;48.710;9.202;2022-07-03T05:12:33;1.47;;;1.37;;
5135;SDS011;2586;48.710;9.202;2022-07-03T05:14:58;2.80;;;2.00;;
5135;SDS011;2586;48.710;9.202;2022-07-03T05:17:24;1.67;;;1.57;;
5135;SDS011;2586;48.710;9.202;2022-07-03T05:19:49;4.03;;;1.67;;
5135;SDS011;2586;48.710;9.202;2022-07-03T05:22:35;2.83;;;1.30;;
5135;SDS011;2586;48.710;9.202;2022-07-03T05:25:00;1.63;;;1.53;;
5135;SDS011;2586;48.710;9.202;2022-07-03T05:27:26;1.53;;;1.43;;
5135;SDS011;2586;48.710;9.202;2022-07-03T05:29:52;1.50;;;1.40;;
5135;SDS011;2586;48.710;9.202;2022-07-03T05:32:17;4.73;;;1.37;;
5135;SDS011;2586;48.710;9.202;2022-07-03T05:34:43;10.77;;;1.97;;
5135;SDS011;2586;48.710;9.202;2022-07-03T05:37:08;4.10;;;1.90;;
5135;SDS011;2586;48.710;9.202;2022-07-03T05:39:34;7.13;;;1.23;;
5135;SDS011;2586;48.710;9.202;2022-07-03T05:42:01;1.23;;;1.20;;
5135;SDS011;2586;48.710;9.202;2022-07-03T05:44:27;1.67;;;1.40;;
5135;SDS011;2586;48.710;9.202;2022-07-03T05:46:52;11.70;;;1.60;;
5135;SDS011;2586;48.710;9.202;2022-07-03T05:49:18;2.17;;;1.40;;
5135;SDS011;2586;48.710;9.202;2022-07-03T05:51:44;1.40;;;1.40;;
5135;SDS011;2586;48.710;9.202;2022-07-03T05:54:09;4.73;;;1.37;;
5135;SDS011;2586;48.710;9.202;2022-07-03T05:56:35;1.20;;;1.10;;
5135;SDS011;2586;48.710;9.202;2022-07-03T05:59:00;2.10;;;1.60;;
5135;SDS011;2586;48.710;9.202;2022-07-03T06:01:26;2.60;;;1.50;;
5135;SDS011;2586;48.710;9.202;2022-07-03T06:03:52;1.20;;;1.10;;
5135;SDS011;2586;48.710;9.202;2022-07-03T06:06:17;3.73;;;1.83;;
5135;SDS011;2586;48.710;9.202;2022-07-03T06:08:43;1.40;;;1.17;;
5135;SDS011;2586;48.710;9.202;2022-07-03T06:11:08;2.30;;;1.67;;
5135;SDS011;2586;48.710;9.202;2022-07-03T06:13:34;2.83;;;1.47;;
5135;SDS011;2586;48.710;9.202;2022-07-03T06:16:00;2.73;;;1.93;;
5135;SDS011;2586;48.710;9.202;2022-07-03T06:18:25;0.90;;;0.90;;
5135;SDS011;2586;48.710;9.202;2022-07-03T06:20:51;5.20;;;1.17;;
5135;SDS011;2586;48.710;9.202;2022-07-03T06:23:17;1.70;;;1.53;;
5135;SDS011;2586;48.710;9.202;2022-07-03T06:25:42;4.63;;;1.70;;
5135;SDS011;2586;48.710;9.202;2022-07-03T06:28:08;2.03;;;1.27;;
5135;SDS011;2586;48.710;9.202;2022-07-03T06:30:33;1.50;;;1.30;;
5135;SDS011;2586;48.710;9.202;2022-07-03T06:32:59;3.17;;;1.10;;
5135;SDS011;2586;48.710;9.202;2022-07-03T06:35:24;4.13;;;1.20;;
5135;SDS011;2586;48.710;9.202;2022-07-03T06:37:50;0.97;;;0.97;;
5135;SDS011;2586;48.710;9.202;2022-07-03T06:40:16;4.47;;;1.20;;
5135;SDS011;2586;48.710;9.202;2022-07-03T06:42:42;1.63;;;1.20;;
5135;SDS011;2586;48.710;9.202;2022-07-03T06:45:08;0.93;;;0.93;;
5135;SDS011;2586;48.710;9.202;2022-07-03T06:47:37;2.00;;;1.17;;
5135;SDS011;2586;48.710;9.202;2022-07-03T06:50:04;2.33;;;1.33;;
5135;SDS011;2586;48.710;9.202;2022-07-03T06:52:30;1.00;;;0.83;;
5135;SDS011;2586;48.710;9.202;2022-07-03T06:54:56;3.17;;;1.20;;
5135;SDS011;2586;48.710;9.202;2022-07-03T06:57:22;1.23;;;1.00;;
5135;SDS011;2586;48.710;9.202;2022-07-03T06:59:47;1.87;;;1.20;;
5135;SDS011;2586;48.710;9.202;2022-07-03T07:02:13;0.93;;;0.83;;
5135;SDS011;2586;48.710;9.202;2022-07-03T07:04:39;1.30;;;1.00;;
5135;SDS011;2586;48.710;9.202;2022-07-03T07:07:05;1.27;;;0.80;;
5135;SDS011;2586;48.710;9.202;2022-07-03T07:09:30;1.20;;;1.00;;
5135;SDS011;2586;48.710;9.202;2022-07-03T07:11:56;1.80;;;1.00;;
5135;SDS011;2586;48.710;9.202;2022-07-03T07:14:21;5.00;;;1.03;;
5135;SDS011;2586;48.710;9.202;2022-07-03T07:16:47;0.93;;;0.93;;
5135;SDS011;2586;48.710;9.202;2022-07-03T07:19:13;1.00;;;0.80;;
5135;SDS011;2586;48.710;9.202;2022-07-03T07:21:38;2.57;;;1.10;;
5135;SDS011;2586;48.710;9.202;2022-07-03T07:24:04;1.30;;;1.20;;
5135;SDS011;2586;48.710;9.202;2022-07-03T07:26:30;1.73;;;0.80;;
5135;SDS011;2586;48.710;9.202;2022-07-03T07:28:56;1.10;;;1.07;;
5135;SDS011;2586;48.710;9.202;2022-07-03T07:31:21;0.70;;;0.70;;
5135;SDS011;2586;48.710;9.202;2022-07-03T07:33:47;0.90;;;0.80;;
5135;SDS011;2586;48.710;9.202;2022-07-03T07:36:12;4.10;;;1.17;;
5135;SDS011;2586;48.710;9.202;2022-07-03T07:38:38;1.57;;;0.60;;
5135;SDS011;2586;48.710;9.202;2022-07-03T07:41:04;1.23;;;0.67;;
5135;SDS011;2586;48.710;9.202;2022-07-03T07:43:30;1.53;;;0.90;;
5135;SDS011;2586;48.710;9.202;2022-07-03T07:45:55;2.60;;;0.80;;
5135;SDS011;2586;48.710;9.202;2022-07-03T07:48:21;4.40;;;0.70;;
5135;SDS011;2586;48.710;9.202;2022-07-03T07:50:46;3.00;;;0.87;;
5135;SDS011;2586;48.710;9.202;2022-07-03T07:53:14;4.37;;;0.70;;
5135;SDS011;2586;48.710;9.202;2022-07-03T07:55:40;0.67;;;0.67;;
5135;SDS011;2586;48.710;9.202;2022-07-03T07:58:05;11.40;;;0.93;;
5135;SDS011;2586;48.710;9.202;2022-07-03T08:00:31;1.93;;;0.70;;
5135;SDS011;2586;48.710;9.202;2022-07-03T08:02:57;1.43;;;0.90;;
5135;SDS011;2586;48.710;9.202;2022-07-03T08:05:41;1.20;;;0.60;;
5135;SDS011;2586;48.710;9.202;2022-07-03T08:08:11;1.77;;;0.67;;
5135;SDS011;2586;48.710;9.202;2022-07-03T08:10:42;1.50;;;0.60;;
5135;SDS011;2586;48.710;9.202;2022-07-03T08:13:09;0.87;;;0.67;;
5135;SDS011;2586;48.710;9.202;2022-07-03T08:15:36;0.90;;;0.60;;
5135;SDS011;2586;48.710;9.202;2022-07-03T08:18:02;4.87;;;0.80;;
5135;SDS011;2586;48.710;9.202;2022-07-03T08:20:28;3.30;;;0.70;;
5135;SDS011;2586;48.710;9.202;2022-07-03T08:22:55;3.03;;;0.70;;
5135;SDS011;2586;48.710;9.202;2022-07-03T08:25:20;2.57;;;0.73;;
5135;SDS011;2586;48.710;9.202;2022-07-03T08:27:46;1.80;;;0.50;;
5135;SDS011;2586;48.710;9.202;2022-07-03T08:30:13;0.80;;;0.60;;
5135;SDS011;2586;48.710;9.202;2022-07-03T08:32:41;1.83;;;0.80;;
5135;SDS011;2586;48.710;9.202;2022-07-03T08:35:06;1.43;;;0.80;;
5135;SDS011;2586;48.710;9.202;2022-07-03T08:37:32;0.60;;;0.50;;
5135;SDS011;2586;48.710;9.202;2022-07-03T08:39:58;0.60;;;0.50;;
5135;SDS011;2586;48.710;9.202;2022-07-03T08:42:23;4.57;;;0.90;;
5135;SDS011;2586;48.710;9.202;2022-07-03T08:44:51;4.73;;;0.60;;
5135;SDS011;2586;48.710;9.202;2022-07-03T08:47:19;0.60;;;0.50;;
5135;SDS011;2586;48.710;9.202;2022-07-03T08:49:46;0.63;;;0.63;;
5135;SDS011;2586;48.710;9.202;2022-07-03T08:52:13;1.67;;;0.67;;
5135;SDS011;2586;48.710;9.202;2022-07-03T08:54:39;1.37;;;0.50;;
5135;SDS011;2586;48.710;9.202;2022-07-03T08:57:05;0.60;;;0.50;;
5135;SDS011;2586;48.710;9.202;2022-07-03T08:59:36;1.37;;;0.83;;
5135;SDS011;2586;48.710;9.202;2022-07-03T09:02:03;0.60;;;0.50;;
5135;SDS011;2586;48.710;9.202;2022-07-03T09:04:33;1.63;;;0.73;;
5135;SDS011;2586;48.710;9.202;2022-07-03T09:06:59;1.33;;;0.73;;
5135;SDS011;2586;48.710;9.202;2022-07-03T09:09:25;0.67;;;0.67;;
5135;SDS011;2586;48.710;9.202;2022-07-03T09:11:52;0.77;;;0.57;;
5135;SDS011;2586;48.710;9.202;2022-07-03T09:14:18;1.63;;;0.50;;
5135;SDS011;2586;48.710;9.202;2022-07-03T09:16:44;1.00;;;0.70;;
5135;SDS011;2586;48.710;9.202;2022-07-03T09:19:10;2.40;;;0.80;;
5135;SDS011;2586;48.710;9.202;2022-07-03T09:24:09;3.67;;;0.70;;
5135;SDS011;2586;48.710;9.202;2022-07-03T09:26:35;3.23;;;0.60;;
5135;SDS011;2586;48.710;9.202;2022-07-03T09:29:01;1.17;;;0.60;;
5135;SDS011;2586;48.710;9.202;2022-07-03T09:31:29;0.80;;;0.70;;
5135;SDS011;2586;48.710;9.202;2022-07-03T09:36:44;4.30;;;0.53;;
5135;SDS011;2586;48.710;9.202;2022-07-03T09:39:26;1.43;;;0.50;;
5135;SDS011;2586;48.710;9.202;2022-07-03T09:44:39;1.40;;;0.80;;
5135;SDS011;2586;48.710;9.202;2022-07-03T09:47:13;0.80;;;0.80;;
5135;SDS011;2586;48.710;9.202;2022-07-03T09:49:50;2.20;;;0.50;;
5135;SDS011;2586;48.710;9.202;2022-07-03T09:57:36;6.20;;;0.77;;
5135;SDS011;2586;48.710;9.202;2022-07-03T10:00:19;2.80;;;0.50;;
5135;SDS011;2586;48.710;9.202;2022-07-03T10:08:07;0.80;;;0.50;;
5135;SDS011;2586;48.710;9.202;2022-07-03T10:10:37;1.00;;;0.40;;
5135;SDS011;2586;48.710;9.202;2022-07-03T10:13:04;0.90;;;0.60;;
5135;SDS011;2586;48.710;9.202;2022-07-03T10:15:31;3.10;;;0.77;;
5135;SDS011;2586;48.710;9.202;2022-07-03T10:18:02;4.50;;;0.80;;
5135;SDS011;2586;48.710;9.202;2022-07-03T10:20:38;1.20;;;0.87;;
5135;SDS011;2586;48.710;9.202;2022-07-03T10:23:11;8.50;;;1.13;;
5135;SDS011;2586;48.710;9.202;2022-07-03T10:25:43;0.70;;;0.60;;
5135;SDS011;2586;48.710;9.202;2022-07-03T10:28:12;2.20;;;0.60;;
5135;SDS011;2586;48.710;9.202;2022-07-03T10:30:39;0.90;;;0.60;;
5135;SDS011;2586;48.710;9.202;2022-07-03T10:33:07;1.00;;;0.47;;
5135;SDS011;2586;48.710;9.202;2022-07-03T10:35:34;1.63;;;0.50;;
5135;SDS011;2586;48.710;9.202;2022-07-03T10:43:40;0.60;;;0.50;;
5135;SDS011;2586;48.710;9.202;2022-07-03T10:46:29;3.90;;;0.60;;
5135;SDS011;2586;48.710;9.202;2022-07-03T10:54:21;3.13;;;1.70;;
5135;SDS011;2586;48.710;9.202;2022-07-03T11:07:24;0.70;;;0.50;;
5135;SDS011;2586;48.710;9.202;2022-07-03T11:12:54;1.03;;;0.87;;
5135;SDS011;2586;48.710;9.202;2022-07-03T11:20:31;0.60;;;0.60;;
5135;SDS011;2586;48.710;9.202;2022-07-03T11:25:46;1.47;;;0.67;;
5135;SDS011;2586;48.710;9.202;2022-07-03T11:36:23;0.90;;;0.60;;
5135;SDS011;2586;48.710;9.202;2022-07-03T11:41:46;1.23;;;0.70;;
5135;SDS011;2586;48.710;9.202;2022-07-03T11:44:16;1.23;;;0.80;;
5135;SDS011;2586;48.710;9.202;2022-07-03T11:46:46;0.70;;;0.70;;
5135;SDS011;2586;48.710;9.202;2022-07-03T11:49:14;0.90;;;0.70;;
5135;SDS011;2586;48.710;9.202;2022-07-03T11:51:42;1.60;;;0.70;;
5135;SDS011;2586;48.710;9.202;2022-07-03T11:54:18;5.30;;;1.80;;
5135;SDS011;2586;48.710;9.202;2022-07-03T11:56:43;1.23;;;0.90;;
5135;SDS011;2586;48.710;9.202;2022-07-03T11:59:09;0.50;;;0.50;;
5135;SDS011;2586;48.710;9.202;2022-07-03T12:01:36;1.43;;;0.50;;
5135;SDS011;2586;48.710;9.202;2022-07-03T12:04:11;1.10;;;0.70;;
5135;SDS011;2586;48.710;9.202;2022-07-03T12:06:41;1.00;;;0.70;;
5135;SDS011;2586;48.710;9.202;2022-07-03T12:09:20;0.80;;;0.50;;
5135;SDS011;2586;48.710;9.202;2022-07-03T12:14:32;1.70;;;0.70;;
5135;SDS011;2586;48.710;9.202;2022-07-03T12:17:08;1.57;;;0.70;;
5135;SDS011;2586;48.710;9.202;2022-07-03T12:19:50;3.53;;;0.63;;
5135;SDS011;2586;48.710;9.202;2022-07-03T12:25:14;2.00;;;1.00;;
5135;SDS011;2586;48.710;9.202;2022-07-03T12:27:40;2.63;;;0.53;;
5135;SDS011;2586;48.710;9.202;2022-07-03T12:30:08;0.80;;;0.70;;
5135;SDS011;2586;48.710;9.202;2022-07-03T12:32:36;10.03;;;1.20;;
5135;SDS011;2586;48.710;9.202;2022-07-03T12:35:03;0.97;;;0.60;;
5135;SDS011;2586;48.710;9.202;2022-07-03T12:37:39;1.63;;;1.10;;
5135;SDS011;2586;48.710;9.202;2022-07-03T12:40:10;0.60;;;0.53;;
5135;SDS011;2586;48.710;9.202;2022-07-03T12:45:13;2.00;;;0.93;;
5135;SDS011;2586;48.710;9.202;2022-07-03T12:47:43;3.43;;;0.80;;
5135;SDS011;2586;48.710;9.202;2022-07-03T12:50:10;1.10;;;0.73;;
5135;SDS011;2586;48.710;9.202;2022-07-03T12:52:48;1.00;;;0.57;;
5135;SDS011;2586;48.710;9.202;2022-07-03T12:55:22;4.57;;;0.40;;
5135;SDS011;2586;48.710;9.202;2022-07-03T12:57:49;2.57;;;0.60;;
5135;SDS011;2586;48.710;9.202;2022-07-03T13:00:43;0.53;;;0.43;;
5135;SDS011;2586;48.710;9.202;2022-07-03T13:03:09;1.63;;;0.50;;
5135;SDS011;2586;48.710;9.202;2022-07-03T13:05:52;1.97;;;0.70;;
5135;SDS011;2586;48.710;9.202;2022-07-03T13:08:18;0.80;;;0.47;;
5135;SDS011;2586;48.710;9.202;2022-07-03T13:10:44;1.30;;;0.80;;
5135;SDS011;2586;48.710;9.202;2022-07-03T13:13:18;0.80;;;0.60;;
5135;SDS011;2586;48.710;9.202;2022-07-03T13:15:44;0.70;;;0.50;;
5135;SDS011;2586;48.710;9.202;2022-07-03T13:18:11;1.10;;;0.70;;
5135;SDS011;2586;48.710;9.202;2022-07-03T13:20:37;4.30;;;0.80;;
5135;SDS011;2586;48.710;9.202;2022-07-03T13:23:03;0.83;;;0.83;;
5135;SDS011;2586;48.710;9.202;2022-07-03T13:25:30;1.30;;;0.83;;
5135;SDS011;2586;48.710;9.202;2022-07-03T13:28:05;1.07;;;0.70;;
5135;SDS011;2586;48.710;9.202;2022-07-03T13:30:35;0.70;;;0.60;;
5135;SDS011;2586;48.710;9.202;2022-07-03T13:33:02;1.07;;;0.67;;
5135;SDS011;2586;48.710;9.202;2022-07-03T13:35:28;3.53;;;0.80;;
5135;SDS011;2586;48.710;9.202;2022-07-03T13:37:55;2.17;;;0.60;;
5135;SDS011;2586;48.710;9.202;2022-07-03T13:40:21;0.93;;;0.40;;
5135;SDS011;2586;48.710;9.202;2022-07-03T13:42:47;0.70;;;0.60;;
5135;SDS011;2586;48.710;9.202;2022-07-03T13:45:12;1.10;;;0.60;;
5135;SDS011;2586;48.710;9.202;2022-07-03T13:47:38;2.23;;;0.60;;
5135;SDS011;2586;48.710;9.202;2022-07-03T13:50:04;1.20;;;0.53;;
5135;SDS011;2586;48.710;9.202;2022-07-03T13:52:30;8.70;;;0.87;;
5135;SDS011;2586;48.710;9.202;2022-07-03T13:54:55;0.70;;;0.60;;
5135;SDS011;2586;48.710;9.202;2022-07-03T13:57:21;3.33;;;0.67;;
5135;SDS011;2586;48.710;9.202;2022-07-03T13:59:47;3.70;;;0.80;;
5135;SDS011;2586;48.710;9.202;2022-07-03T14:02:13;0.93;;;0.70;;
5135;SDS011;2586;48.710;9.202;2022-07-03T14:04:39;1.17;;;0.60;;
5135;SDS011;2586;48.710;9.202;2022-07-03T14:07:05;5.87;;;0.80;;
5135;SDS011;2586;48.710;9.202;2022-07-03T14:09:31;11.87;;;1.50;;
5135;SDS011;2586;48.710;9.202;2022-07-03T14:11:56;1.20;;;0.70;;
5135;SDS011;2586;48.710;9.202;2022-07-03T14:14:22;4.23;;;0.70;;
5135;SDS011;2586;48.710;9.202;2022-07-03T14:16:47;2.20;;;0.60;;
5135;SDS011;2586;48.710;9.202;2022-07-03T14:19:13;0.70;;;0.70;;
5135;SDS011;2586;48.710;9.202;2022-07-03T14:21:39;1.03;;;0.93;;
5135;SDS011;2586;48.710;9.202;2022-07-03T14:24:04;0.90;;;0.70;;
5135;SDS011;2586;48.710;9.202;2022-07-03T14:26:30;2.40;;;0.80;;
5135;SDS011;2586;48.710;9.202;2022-07-03T14:29:14;1.43;;;1.10;;
5135;SDS011;2586;48.710;9.202;2022-07-03T14:31:58;2.77;;;0.93;;
5135;SDS011;2586;48.710;9.202;2022-07-03T14:34:42;0.70;;;0.60;;
5135;SDS011;2586;48.710;9.202;2022-07-03T14:37:08;1.67;;;0.70;;
5135;SDS011;2586;48.710;9.202;2022-07-03T14:39:34;1.90;;;0.97;;
5135;SDS011;2586;48.710;9.202;2022-07-03T14:42:00;1.03;;;0.87;;
5135;SDS011;2586;48.710;9.202;2022-07-03T14:44:27;2.53;;;0.60;;
5135;SDS011;2586;48.710;9.202;2022-07-03T14:46:54;5.27;;;0.90;;
5135;SDS011;2586;48.710;9.202;2022-07-03T14:49:20;1.47;;;0.60;;
5135;SDS011;2586;48.710;9.202;2022-07-03T14:51:46;3.57;;;0.77;;
5135;SDS011;2586;48.710;9.202;2022-07-03T14:54:16;2.90;;;0.80;;
5135;SDS011;2586;48.710;9.202;2022-07-03T14:56:44;3.80;;;0.60;;
5135;SDS011;2586;48.710;9.202;2022-07-03T14:59:20;0.93;;;0.70;;
5135;SDS011;2586;48.710;9.202;2022-07-03T15:01:56;0.90;;;0.70;;
5135;SDS011;2586;48.710;9.202;2022-07-03T15:04:34;2.03;;;0.77;;
5135;SDS011;2586;48.710;9.202;2022-07-03T15:07:15;0.87;;;0.80;;
5135;SDS011;2586;48.710;9.202;2022-07-03T15:09:47;3.50;;;0.90;;
5135;SDS011;2586;48.710;9.202;2022-07-03T15:12:24;1.00;;;0.67;;
5135;SDS011;2586;48.710;9.202;2022-07-03T15:14:54;7.73;;;0.90;;
5135;SDS011;2586;48.710;9.202;2022-07-03T15:17:23;1.80;;;0.90;;
5135;SDS011;2586;48.710;9.202;2022-07-03T15:19:52;1.60;;;1.13;;
5135;SDS011;2586;48.710;9.202;2022-07-03T15:22:20;2.60;;;0.87;;
5135;SDS011;2586;48.710;9.202;2022-07-03T15:24:52;12.23;;;0.70;;
5135;SDS011;2586;48.710;9.202;2022-07-03T15:27:19;8.90;;;0.90;;
5135;SDS011;2586;48.710;9.202;2022-07-03T15:29:47;2.97;;;0.70;;
5135;SDS011;2586;48.710;9.202;2022-07-03T15:32:13;3.43;;;1.07;;
5135;SDS011;2586;48.710;9.202;2022-07-03T15:34:39;2.23;;;1.10;;
5135;SDS011;2586;48.710;9.202;2022-07-03T15:39:59;1.43;;;0.80;;
5135;SDS011;2586;48.710;9.202;2022-07-03T15:45:07;1.77;;;0.80;;
5135;SDS011;2586;48.710;9.202;2022-07-03T15:50:26;3.30;;;0.70;;
5135;SDS011;2586;48.710;9.202;2022-07-03T15:53:04;1.87;;;0.60;;
5135;SDS011;2586;48.710;9.202;2022-07-03T15:55:35;2.00;;;0.87;;
5135;SDS011;2586;48.710;9.202;2022-07-03T15:58:07;14.90;;;1.50;;
5135;SDS011;2586;48.710;9.202;2022-07-03T16:00:36;0.80;;;0.70;;
5135;SDS011;2586;48.710;9.202;2022-07-03T16:05:37;0.70;;;0.60;;
5135;SDS011;2586;48.710;9.202;2022-07-03T16:08:07;2.97;;;0.73;;
5135;SDS011;2586;48.710;9.202;2022-07-03T16:10:37;7.00;;;0.87;;
5135;SDS011;2586;48.710;9.202;2022-07-03T16:13:03;2.10;;;0.90;;
5135;SDS011;2586;48.710;9.202;2022-07-03T16:15:36;0.60;;;0.57;;
5135;SDS011;2586;48.710;9.202;2022-07-03T16:18:08;3.03;;;0.90;;
5135;SDS011;2586;48.710;9.202;2022-07-03T16:20:34;0.80;;;0.50;;
5135;SDS011;2586;48.710;9.202;2022-07-03T16:23:01;0.83;;;0.50;;
5135;SDS011;2586;48.710;9.202;2022-07-03T16:25:28;1.10;;;0.73;;
5135;SDS011;2586;48.710;9.202;2022-07-03T16:27:56;0.70;;;0.67;;
5135;SDS011;2586;48.710;9.202;2022-07-03T16:30:22;1.00;;;0.73;;
5135;SDS011;2586;48.710;9.202;2022-07-03T16:32:48;2.43;;;1.33;;
5135;SDS011;2586;48.710;9.202;2022-07-03T16:35:25;11.07;;;0.90;;
5135;SDS011;2586;48.710;9.202;2022-07-03T16:38:01;0.60;;;0.60;;
5135;SDS011;2586;48.710;9.202;2022-07-03T16:40:28;2.03;;;0.70;;
5135;SDS011;2586;48.710;9.202;2022-07-03T16:42:56;1.43;;;0.70;;
5135;SDS011;2586;48.710;9.202;2022-07-03T16:45:23;1.33;;;0.93;;
5135;SDS011;2586;48.710;9.202;2022-07-03T16:47:54;5.73;;;0.90;;
5135;SDS011;2586;48.710;9.202;2022-07-03T16:50:30;1.83;;;1.00;;
5135;SDS011;2586;48.710;9.202;2022-07-03T16:52:55;1.40;;;0.73;;
5135;SDS011;2586;48.710;9.202;2022-07-03T16:55:22;7.20;;;1.00;;
5135;SDS011;2586;48.710;9.202;2022-07-03T16:57:49;2.50;;;1.10;;
5135;SDS011;2586;48.710;9.202;2022-07-03T17:00:28;1.43;;;0.77;;
5135;SDS011;2586;48.710;9.202;2022-07-03T17:02:55;8.03;;;1.00;;
5135;SDS011;2586;48.710;9.202;2022-07-03T17:05:22;2.70;;;0.87;;
5135;SDS011;2586;48.710;9.202;2022-07-03T17:07:51;0.87;;;0.80;;
5135;SDS011;2586;48.710;9.202;2022-07-03T17:10:19;1.07;;;0.80;;
5135;SDS011;2586;48.710;9.202;2022-07-03T17:12:48;1.37;;;0.70;;